Time;durP1;ratioP1;P1;durP2;ratioP2;P2;SDS_P1;SDS_P2;PMS_P1;PMS_P2;Temp;Humidity;BMP_temperature;BMP_pressure;BME280_temperature;BME280_humidity;BME280_pressure;Samples;Min_cycle;Max_cycle;Signal;HPM_P1;HPM_P2
2023/01/19 00:01:18;;;;;;;;;;;2.00;83.60;;;;;;5050514;28;19928;-85
2023/01/19 00:03:44;;;;;;;;;;;2.00;83.50;;;;;;5062748;28;19917;-85
2023/01/19 00:06:09;;;;;;;;;;;1.90;83.60;;;;;;5043859;28;19923;-85
2023/01/19 00:08:35;;;;;;;;;;;1.90;83.70;;;;;;5051955;28;19960;-85
2023/01/19 00:11:01;;;;;;;;;;;1.90;83.80;;;;;;5056996;28;19905;-85
2023/01/19 00:13:26;;;;;;;;;;;1.90;83.70;;;;;;5066847;28;19913;-86
2023/01/19 00:15:52;;;;;;;;;;;1.90;83.80;;;;;;5047313;28;20058;-86
2023/01/19 00:18:17;;;;;;;;;;;2.00;83.60;;;;;;5063830;28;19924;-84
2023/01/19 00:20:46;;;;;;;;;;;1.90;83.70;;;;;;5050400;28;19992;-86
2023/01/19 00:23:12;;;;;;;;;;;1.90;83.70;;;;;;5054217;28;20354;-86
2023/01/19 00:25:44;;;;;;;;;;;1.80;84.00;;;;;;5046953;28;19982;-85
2023/01/19 00:28:10;;;;;;;;;;;2.00;84.20;;;;;;5060192;28;19917;-86
2023/01/19 00:30:36;;;;;;;;;;;2.00;84.00;;;;;;5052903;28;20373;-85
2023/01/19 00:33:02;;;;;;;;;;;2.00;84.00;;;;;;5043962;28;19917;-86
2023/01/19 00:35:28;;;;;;;;;;;2.00;83.90;;;;;;5056314;28;19992;-85
2023/01/19 00:37:55;;;;;;;;;;;1.90;83.90;;;;;;5072239;28;19919;-85
2023/01/19 00:40:21;;;;;;;;;;;1.90;84.10;;;;;;5065607;28;20878;-85
2023/01/19 00:42:47;;;;;;;;;;;2.00;84.10;;;;;;5056819;28;19979;-85
2023/01/19 00:45:13;;;;;;;;;;;2.00;84.00;;;;;;5050674;28;19924;-85
2023/01/19 00:47:39;;;;;;;;;;;1.90;84.10;;;;;;5058627;28;19916;-85
2023/01/19 00:50:06;;;;;;;;;;;1.80;84.20;;;;;;5053820;28;20012;-84
2023/01/19 00:52:31;;;;;;;;;;;1.90;84.30;;;;;;5070765;28;19917;-85
2023/01/19 00:54:56;;;;;;;;;;;1.90;84.40;;;;;;5044647;28;19913;-84
2023/01/19 00:57:22;;;;;;;;;;;2.00;84.30;;;;;;5041946;28;20003;-84
2023/01/19 00:59:47;;;;;;;;;;;2.10;84.20;;;;;;5059769;28;19916;-84
2023/01/19 01:02:13;;;;;;;;;;;2.10;83.90;;;;;;5048049;28;19925;-85
2023/01/19 01:04:39;;;;;;;;;;;2.20;83.90;;;;;;5047124;28;19949;-85
2023/01/19 01:07:04;;;;;;;;;;;2.20;83.80;;;;;;5050799;28;19920;-85
2023/01/19 01:09:30;;;;;;;;;;;2.30;83.60;;;;;;5076867;28;19909;-85
2023/01/19 01:11:55;;;;;;;;;;;2.20;83.70;;;;;;5056980;28;19909;-85
2023/01/19 01:14:21;;;;;;;;;;;2.10;83.80;;;;;;5048019;28;19913;-86
2023/01/19 01:16:46;;;;;;;;;;;2.10;83.70;;;;;;5059074;28;19920;-85
2023/01/19 01:19:12;;;;;;;;;;;2.10;83.90;;;;;;5047425;28;19913;-84
2023/01/19 01:21:37;;;;;;;;;;;2.20;83.80;;;;;;5057247;28;19917;-85
2023/01/19 01:24:03;;;;;;;;;;;2.20;83.70;;;;;;5059740;28;20011;-85
2023/01/19 01:26:28;;;;;;;;;;;2.20;83.30;;;;;;5046310;28;19913;-85
2023/01/19 01:28:54;;;;;;;;;;;2.20;83.70;;;;;;5056401;28;19951;-85
2023/01/19 01:31:19;;;;;;;;;;;2.30;83.90;;;;;;5054885;28;19921;-84
2023/01/19 01:33:45;;;;;;;;;;;2.30;83.60;;;;;;5065162;28;20270;-84
2023/01/19 01:36:10;;;;;;;;;;;2.30;83.60;;;;;;5046839;28;19920;-84
2023/01/19 01:38:37;;;;;;;;;;;2.30;83.50;;;;;;5057177;28;19913;-84
2023/01/19 01:41:03;;;;;;;;;;;2.40;83.00;;;;;;5067725;28;19913;-84
2023/01/19 01:43:45;;;;;;;;;;;2.40;83.50;;;;;;5075221;28;19921;-85
2023/01/19 01:46:11;;;;;;;;;;;2.40;83.00;;;;;;5068646;28;19913;-86
2023/01/19 01:48:38;;;;;;;;;;;2.40;83.30;;;;;;5048669;28;19912;-85
2023/01/19 01:51:24;;;;;;;;;;;2.40;83.50;;;;;;5046879;28;19969;-84
2023/01/19 01:53:58;;;;;;;;;;;2.40;83.30;;;;;;5051890;28;19912;-85
2023/01/19 01:56:27;;;;;;;;;;;2.40;83.20;;;;;;5051362;28;19946;-86
2023/01/19 01:58:52;;;;;;;;;;;2.50;83.30;;;;;;5051196;28;20298;-85
2023/01/19 02:04:06;;;;;;;;;;;2.50;83.50;;;;;;5029769;28;20422;-85
2023/01/19 02:06:32;;;;;;;;;;;2.40;83.30;;;;;;5054555;28;19912;-85
2023/01/19 02:14:26;;;;;;;;;;;2.30;83.20;;;;;;5048899;28;19925;-85
2023/01/19 02:16:52;;;;;;;;;;;2.30;83.60;;;;;;5045487;28;19924;-85
2023/01/19 02:19:26;;;;;;;;;;;2.40;83.60;;;;;;5052078;28;19952;-85
2023/01/19 02:21:51;;;;;;;;;;;2.30;83.40;;;;;;5041245;28;20011;-85
2023/01/19 02:24:17;;;;;;;;;;;2.40;83.60;;;;;;5042223;28;19960;-85
2023/01/19 02:26:46;;;;;;;;;;;2.30;83.70;;;;;;5042075;28;19909;-85
2023/01/19 02:29:13;;;;;;;;;;;2.30;83.70;;;;;;5053336;28;19913;-85
2023/01/19 02:31:39;;;;;;;;;;;2.20;83.70;;;;;;5046716;28;19917;-84
2023/01/19 02:34:08;;;;;;;;;;;2.20;83.70;;;;;;5066729;28;23538;-85
2023/01/19 02:36:36;;;;;;;;;;;2.30;83.90;;;;;;5069107;28;19919;-85
2023/01/19 02:39:02;;;;;;;;;;;2.30;83.60;;;;;;5070596;28;19925;-85
2023/01/19 02:41:30;;;;;;;;;;;2.30;83.40;;;;;;5054757;28;19913;-85
2023/01/19 02:43:56;;;;;;;;;;;2.30;83.60;;;;;;5043745;28;19920;-85
2023/01/19 02:46:22;;;;;;;;;;;2.30;83.50;;;;;;5068919;28;20003;-85
2023/01/19 02:48:47;;;;;;;;;;;2.30;83.30;;;;;;5050548;28;19974;-85
2023/01/19 02:51:15;;;;;;;;;;;2.40;83.30;;;;;;5059157;28;19989;-85
2023/01/19 02:53:41;;;;;;;;;;;2.50;83.10;;;;;;5048555;28;20316;-85
2023/01/19 02:56:06;;;;;;;;;;;2.40;83.00;;;;;;5052520;28;19917;-85
2023/01/19 02:58:52;;;;;;;;;;;2.40;83.30;;;;;;5039426;28;19954;-85
2023/01/19 03:01:24;;;;;;;;;;;2.40;83.20;;;;;;5016130;28;19999;-86
2023/01/19 03:03:49;;;;;;;;;;;2.30;83.20;;;;;;5037151;28;20243;-86
2023/01/19 03:06:17;;;;;;;;;;;2.30;83.60;;;;;;5042607;28;19960;-85
2023/01/19 03:08:46;;;;;;;;;;;2.30;83.20;;;;;;5046346;28;19901;-84
2023/01/19 03:11:12;;;;;;;;;;;2.40;83.20;;;;;;5059076;28;19917;-86
2023/01/19 03:13:40;;;;;;;;;;;2.30;83.20;;;;;;5058098;28;20035;-86
2023/01/19 03:16:12;;;;;;;;;;;2.20;83.40;;;;;;5055785;28;19909;-86
2023/01/19 03:18:39;;;;;;;;;;;2.20;83.40;;;;;;5053212;28;19952;-85
2023/01/19 03:21:05;;;;;;;;;;;2.20;83.60;;;;;;5060199;28;19936;-84
2023/01/19 03:23:33;;;;;;;;;;;2.20;83.60;;;;;;5076700;28;19984;-83
2023/01/19 03:26:00;;;;;;;;;;;2.20;83.60;;;;;;5070868;28;20016;-85
2023/01/19 03:28:27;;;;;;;;;;;2.20;83.40;;;;;;5048099;28;19920;-85
2023/01/19 03:30:57;;;;;;;;;;;2.30;83.50;;;;;;5049659;28;19928;-86
2023/01/19 03:33:27;;;;;;;;;;;2.30;83.00;;;;;;5069239;28;19909;-85
2023/01/19 03:35:55;;;;;;;;;;;2.30;83.20;;;;;;5053472;28;19917;-86
2023/01/19 03:38:23;;;;;;;;;;;2.30;83.30;;;;;;5065243;28;19913;-85
2023/01/19 03:40:50;;;;;;;;;;;2.30;83.50;;;;;;5062550;28;19912;-85
2023/01/19 03:43:16;;;;;;;;;;;2.30;83.40;;;;;;5046082;28;19936;-86
2023/01/19 03:45:42;;;;;;;;;;;2.30;83.00;;;;;;5049356;28;19995;-85
2023/01/19 03:48:08;;;;;;;;;;;2.30;82.90;;;;;;5072096;28;19940;-85
2023/01/19 03:50:34;;;;;;;;;;;2.40;82.80;;;;;;5068245;28;19940;-86
2023/01/19 03:53:07;;;;;;;;;;;2.40;82.80;;;;;;5057415;28;20444;-86
2023/01/19 03:55:33;;;;;;;;;;;2.30;82.90;;;;;;5044485;28;19913;-85
2023/01/19 03:57:59;;;;;;;;;;;2.40;82.90;;;;;;5069730;28;19900;-84
2023/01/19 04:00:24;;;;;;;;;;;2.30;83.00;;;;;;5062408;28;20073;-85
2023/01/19 04:02:50;;;;;;;;;;;2.30;83.20;;;;;;5046165;28;19913;-85
2023/01/19 04:05:16;;;;;;;;;;;2.40;83.00;;;;;;5072247;28;20011;-85
2023/01/19 04:07:41;;;;;;;;;;;2.50;82.80;;;;;;5056264;28;19912;-85
2023/01/19 04:10:11;;;;;;;;;;;2.50;82.60;;;;;;5051431;28;20049;-85
2023/01/19 04:12:37;;;;;;;;;;;2.50;82.80;;;;;;5046949;28;19952;-85
2023/01/19 04:15:03;;;;;;;;;;;2.50;82.90;;;;;;5068689;28;19916;-85
2023/01/19 04:17:30;;;;;;;;;;;2.50;83.00;;;;;;5064176;28;19961;-85
2023/01/19 04:19:55;;;;;;;;;;;2.50;83.10;;;;;;5049096;28;20346;-85
2023/01/19 04:22:20;;;;;;;;;;;2.50;83.10;;;;;;5047532;28;19964;-85
2023/01/19 04:24:46;;;;;;;;;;;2.40;83.20;;;;;;5062131;28;19951;-85
2023/01/19 04:27:13;;;;;;;;;;;2.50;83.40;;;;;;5080167;28;19962;-86
2023/01/19 04:29:39;;;;;;;;;;;2.50;83.60;;;;;;5061908;28;20435;-85
2023/01/19 04:32:04;;;;;;;;;;;2.50;83.20;;;;;;5053820;28;20275;-85
2023/01/19 04:34:30;;;;;;;;;;;2.50;83.60;;;;;;5059748;28;19975;-85
2023/01/19 04:36:55;;;;;;;;;;;2.50;83.70;;;;;;5058672;28;19909;-85
2023/01/19 04:39:21;;;;;;;;;;;2.50;83.80;;;;;;5070772;28;20004;-85
2023/01/19 04:41:47;;;;;;;;;;;2.50;83.80;;;;;;5048478;28;19916;-85
2023/01/19 04:44:13;;;;;;;;;;;2.40;84.50;;;;;;5056152;28;19917;-86
2023/01/19 04:46:38;;;;;;;;;;;2.40;85.10;;;;;;5046042;28;20011;-85
2023/01/19 04:49:04;;;;;;;;;;;2.20;86.10;;;;;;5053716;28;19924;-85
2023/01/19 04:51:29;;;;;;;;;;;2.10;86.80;;;;;;5044243;28;19928;-85
2023/01/19 04:53:56;;;;;;;;;;;1.90;87.40;;;;;;5055923;28;19912;-85
2023/01/19 04:56:22;;;;;;;;;;;1.80;87.70;;;;;;5038152;28;19917;-85
2023/01/19 04:58:50;;;;;;;;;;;1.70;88.10;;;;;;5068960;28;19913;-85
2023/01/19 05:01:16;;;;;;;;;;;1.60;88.80;;;;;;5045982;28;20048;-84
2023/01/19 05:03:41;;;;;;;;;;;1.60;89.30;;;;;;5043487;28;19921;-84
2023/01/19 05:06:07;;;;;;;;;;;1.60;89.50;;;;;;5044444;28;19913;-85
2023/01/19 05:08:32;;;;;;;;;;;1.50;89.70;;;;;;5048259;28;19913;-84
2023/01/19 05:10:58;;;;;;;;;;;1.50;90.00;;;;;;5049538;28;20366;-86
2023/01/19 05:13:23;;;;;;;;;;;1.40;90.20;;;;;;5041157;28;19913;-84
2023/01/19 05:15:49;;;;;;;;;;;1.40;90.30;;;;;;5045675;28;20024;-84
2023/01/19 05:18:14;;;;;;;;;;;1.40;90.60;;;;;;5044379;28;20033;-85
2023/01/19 05:20:40;;;;;;;;;;;1.40;90.70;;;;;;5053928;28;20007;-84
2023/01/19 05:23:05;;;;;;;;;;;1.30;90.80;;;;;;5053340;28;19913;-85
2023/01/19 05:25:31;;;;;;;;;;;1.40;90.80;;;;;;5062799;28;20263;-85
2023/01/19 05:27:56;;;;;;;;;;;1.40;90.70;;;;;;5051606;28;19916;-86
2023/01/19 05:30:22;;;;;;;;;;;1.30;90.90;;;;;;5070522;28;19999;-85
2023/01/19 05:32:48;;;;;;;;;;;1.30;91.10;;;;;;5053657;28;19913;-86
2023/01/19 05:35:14;;;;;;;;;;;1.30;91.10;;;;;;5062773;28;19913;-84
2023/01/19 05:37:39;;;;;;;;;;;1.30;91.10;;;;;;5049297;28;19920;-85
2023/01/19 05:40:05;;;;;;;;;;;1.40;91.20;;;;;;5067511;28;19936;-83
2023/01/19 05:42:31;;;;;;;;;;;1.40;91.10;;;;;;5056805;28;19913;-84
2023/01/19 05:44:58;;;;;;;;;;;1.40;91.10;;;;;;5047323;28;19960;-84
2023/01/19 05:47:23;;;;;;;;;;;1.40;91.30;;;;;;5057000;28;20012;-83
2023/01/19 05:49:49;;;;;;;;;;;1.40;91.30;;;;;;5046224;28;20426;-83
2023/01/19 05:52:14;;;;;;;;;;;1.40;91.20;;;;;;5039288;28;19913;-84
2023/01/19 05:54:40;;;;;;;;;;;1.50;91.10;;;;;;5086191;22;19913;-84
2023/01/19 05:57:05;;;;;;;;;;;1.40;91.20;;;;;;5040254;28;20328;-85
2023/01/19 05:59:31;;;;;;;;;;;1.30;91.20;;;;;;5044304;28;19920;-87
2023/01/19 06:01:58;;;;;;;;;;;1.40;91.40;;;;;;5042002;28;19924;-86
2023/01/19 06:04:24;;;;;;;;;;;1.40;91.40;;;;;;5047387;28;19920;-86
2023/01/19 06:06:50;;;;;;;;;;;1.30;91.30;;;;;;5048105;28;20545;-85
2023/01/19 06:09:16;;;;;;;;;;;1.30;91.40;;;;;;5038918;28;19913;-85
2023/01/19 06:11:42;;;;;;;;;;;1.30;91.40;;;;;;5056433;28;19932;-83
2023/01/19 06:14:08;;;;;;;;;;;1.30;91.30;;;;;;5059345;28;19913;-84
2023/01/19 06:16:33;;;;;;;;;;;1.30;91.50;;;;;;5053028;28;19912;-84
2023/01/19 06:18:59;;;;;;;;;;;1.30;91.50;;;;;;5050767;28;20023;-83
2023/01/19 06:21:25;;;;;;;;;;;1.30;91.50;;;;;;5037306;28;19920;-83
2023/01/19 06:23:50;;;;;;;;;;;1.30;91.50;;;;;;5043760;28;19987;-86
2023/01/19 06:26:16;;;;;;;;;;;1.30;91.50;;;;;;5049968;28;19912;-84
2023/01/19 06:28:41;;;;;;;;;;;1.30;91.60;;;;;;5042599;28;20378;-86
2023/01/19 06:31:06;;;;;;;;;;;1.30;91.70;;;;;;5043197;28;20318;-86
2023/01/19 06:33:32;;;;;;;;;;;1.30;91.60;;;;;;5046214;28;19916;-87
2023/01/19 06:35:58;;;;;;;;;;;1.30;91.60;;;;;;5047348;28;20011;-87
2023/01/19 06:38:24;;;;;;;;;;;1.40;91.70;;;;;;5047663;28;19917;-86
2023/01/19 06:40:54;;;;;;;;;;;1.40;91.70;;;;;;5047122;28;19919;-87
2023/01/19 06:43:20;;;;;;;;;;;1.40;91.60;;;;;;5049293;28;19924;-86
2023/01/19 06:45:46;;;;;;;;;;;1.30;91.50;;;;;;5076776;22;19924;-81
2023/01/19 06:48:11;;;;;;;;;;;1.40;91.50;;;;;;5059164;28;19920;-80
2023/01/19 06:50:37;;;;;;;;;;;1.40;91.50;;;;;;5046706;28;19920;-83
2023/01/19 06:53:02;;;;;;;;;;;1.50;91.40;;;;;;5047446;28;19917;-86
2023/01/19 06:55:28;;;;;;;;;;;1.50;91.40;;;;;;5048747;28;19913;-86
2023/01/19 06:58:00;;;;;;;;;;;1.40;91.40;;;;;;5044399;28;19988;-85
2023/01/19 07:00:25;;;;;;;;;;;1.50;91.30;;;;;;5047745;28;19928;-86
2023/01/19 07:02:51;;;;;;;;;;;1.30;91.20;;;;;;5071568;28;19913;-85
2023/01/19 07:05:16;;;;;;;;;;;1.30;91.60;;;;;;5045534;28;19913;-85
2023/01/19 07:07:43;;;;;;;;;;;1.30;91.60;;;;;;5055239;28;19912;-85
2023/01/19 07:10:10;;;;;;;;;;;1.30;91.60;;;;;;5058163;28;20007;-84
2023/01/19 07:12:36;;;;;;;;;;;1.40;91.90;;;;;;5051233;28;20274;-85
2023/01/19 07:15:02;;;;;;;;;;;1.30;91.80;;;;;;5049191;28;19916;-86
2023/01/19 07:17:28;;;;;;;;;;;1.50;92.00;;;;;;5040372;28;20450;-86
2023/01/19 07:19:53;;;;;;;;;;;1.50;91.80;;;;;;5036575;28;20351;-85
2023/01/19 07:22:18;;;;;;;;;;;1.30;91.60;;;;;;5040497;28;19913;-85
2023/01/19 07:24:44;;;;;;;;;;;1.40;91.70;;;;;;5065538;28;20432;-85
2023/01/19 07:27:10;;;;;;;;;;;1.40;91.80;;;;;;5062065;28;20289;-86
2023/01/19 07:29:36;;;;;;;;;;;1.50;91.90;;;;;;5049167;28;19935;-85
2023/01/19 07:32:01;;;;;;;;;;;1.50;91.70;;;;;;5046047;28;20031;-86
2023/01/19 07:34:27;;;;;;;;;;;1.60;91.60;;;;;;5056119;28;19925;-86
2023/01/19 07:36:54;;;;;;;;;;;1.60;91.40;;;;;;5048461;28;19983;-85
2023/01/19 07:39:20;;;;;;;;;;;1.60;91.30;;;;;;5056585;28;19912;-83
2023/01/19 07:41:47;;;;;;;;;;;1.60;91.40;;;;;;5040576;28;19920;-84
2023/01/19 07:44:12;;;;;;;;;;;1.60;91.60;;;;;;5045475;28;20327;-84
2023/01/19 07:46:37;;;;;;;;;;;1.60;91.40;;;;;;5043593;28;19975;-84
2023/01/19 07:49:03;;;;;;;;;;;1.70;91.50;;;;;;5038052;28;19927;-84
2023/01/19 07:51:29;;;;;;;;;;;1.70;91.20;;;;;;5055311;28;19917;-84
2023/01/19 07:53:54;;;;;;;;;;;1.70;91.10;;;;;;5044321;28;20012;-83
2023/01/19 07:56:20;;;;;;;;;;;1.60;91.10;;;;;;5045190;28;19928;-80
2023/01/19 07:58:48;;;;;;;;;;;1.70;91.00;;;;;;5042909;28;20300;-82
2023/01/19 08:01:14;;;;;;;;;;;1.70;91.10;;;;;;5041614;28;20004;-81
2023/01/19 08:03:39;;;;;;;;;;;1.70;91.10;;;;;;5047324;28;20101;-79
2023/01/19 08:06:05;;;;;;;;;;;1.70;91.10;;;;;;5045989;28;19913;-79
2023/01/19 08:08:32;;;;;;;;;;;1.70;91.00;;;;;;5046584;28;19912;-81
2023/01/19 08:10:57;;;;;;;;;;;1.70;91.00;;;;;;5038587;28;19978;-80
2023/01/19 08:13:23;;;;;;;;;;;1.70;91.20;;;;;;5045223;28;19921;-81
2023/01/19 08:15:50;;;;;;;;;;;1.80;91.30;;;;;;5041994;28;19924;-81
2023/01/19 08:18:15;;;;;;;;;;;1.70;91.10;;;;;;5051682;28;20028;-81
2023/01/19 08:20:41;;;;;;;;;;;1.80;91.10;;;;;;5050041;28;19948;-80
2023/01/19 08:23:07;;;;;;;;;;;1.80;91.00;;;;;;5052445;28;19913;-80
2023/01/19 08:25:33;;;;;;;;;;;1.80;91.00;;;;;;5046680;28;19913;-81
2023/01/19 08:27:59;;;;;;;;;;;1.80;91.00;;;;;;5050799;28;19917;-84
2023/01/19 08:30:25;;;;;;;;;;;1.80;90.90;;;;;;5071963;28;20428;-83
2023/01/19 08:32:51;;;;;;;;;;;1.80;90.80;;;;;;5051908;28;19913;-82
2023/01/19 08:35:17;;;;;;;;;;;1.90;90.90;;;;;;5066960;28;19920;-82
2023/01/19 08:37:42;;;;;;;;;;;1.90;90.80;;;;;;5042993;28;19909;-82
2023/01/19 08:40:08;;;;;;;;;;;1.90;90.80;;;;;;5057286;28;20308;-84
2023/01/19 08:42:33;;;;;;;;;;;1.90;90.80;;;;;;5047455;28;19924;-82
2023/01/19 08:44:59;;;;;;;;;;;2.00;90.70;;;;;;5041870;28;20459;-81
2023/01/19 08:47:24;;;;;;;;;;;2.00;90.90;;;;;;5059713;28;20025;-81
2023/01/19 08:49:50;;;;;;;;;;;2.00;90.70;;;;;;5040917;28;19924;-83
2023/01/19 08:52:15;;;;;;;;;;;2.00;90.70;;;;;;5043198;28;19909;-83
2023/01/19 08:54:41;;;;;;;;;;;2.00;90.80;;;;;;5044781;28;19913;-81
2023/01/19 08:57:06;;;;;;;;;;;2.10;90.90;;;;;;5043061;28;19913;-80
2023/01/19 08:59:31;;;;;;;;;;;2.10;90.70;;;;;;5046891;28;19920;-81
2023/01/19 09:01:57;;;;;;;;;;;2.00;90.70;;;;;;5041720;28;20000;-80
2023/01/19 09:04:23;;;;;;;;;;;2.10;90.70;;;;;;5046721;28;19921;-81
2023/01/19 09:06:48;;;;;;;;;;;2.00;90.70;;;;;;5040492;28;20004;-81
2023/01/19 09:09:14;;;;;;;;;;;2.00;90.80;;;;;;5047339;28;19939;-81
2023/01/19 09:11:39;;;;;;;;;;;2.10;90.90;;;;;;5044905;28;19960;-80
2023/01/19 09:14:05;;;;;;;;;;;2.10;90.80;;;;;;5040208;28;19917;-81
2023/01/19 09:16:31;;;;;;;;;;;2.10;90.80;;;;;;5051727;28;19999;-81
2023/01/19 09:18:57;;;;;;;;;;;2.10;90.60;;;;;;5037996;28;20016;-79
2023/01/19 09:21:22;;;;;;;;;;;2.20;90.70;;;;;;5034044;28;19913;-82
2023/01/19 09:23:48;;;;;;;;;;;2.20;90.70;;;;;;5062762;28;19920;-80
2023/01/19 09:26:16;;;;;;;;;;;2.10;90.60;;;;;;5053391;28;19909;-81
2023/01/19 09:28:41;;;;;;;;;;;2.20;90.60;;;;;;5052360;28;19909;-80
2023/01/19 09:31:07;;;;;;;;;;;2.20;90.70;;;;;;5048140;28;19917;-79
2023/01/19 09:33:33;;;;;;;;;;;2.20;90.60;;;;;;5046239;28;19924;-79
2023/01/19 09:35:59;;;;;;;;;;;2.30;90.70;;;;;;5048541;28;19917;-80
2023/01/19 09:38:25;;;;;;;;;;;2.30;90.60;;;;;;5045499;28;19998;-80
2023/01/19 09:40:53;;;;;;;;;;;2.40;90.70;;;;;;5041347;28;19959;-80
2023/01/19 09:43:27;;;;;;;;;;;2.30;90.50;;;;;;5043090;28;19916;-80
2023/01/19 09:45:57;;;;;;;;;;;2.30;90.30;;;;;;5038317;28;19924;-81
2023/01/19 09:48:28;;;;;;;;;;;2.40;90.40;;;;;;5040219;28;19917;-83
2023/01/19 09:50:57;;;;;;;;;;;2.40;90.60;;;;;;5043653;28;20611;-81
2023/01/19 09:53:35;;;;;;;;;;;2.40;90.50;;;;;;5045747;28;19956;-79
2023/01/19 09:56:00;;;;;;;;;;;2.40;90.50;;;;;;5044306;28;19995;-80
2023/01/19 09:58:26;;;;;;;;;;;2.30;90.40;;;;;;5036772;28;19956;-83
2023/01/19 10:00:54;;;;;;;;;;;2.40;90.70;;;;;;5050382;28;19919;-82
2023/01/19 10:03:19;;;;;;;;;;;2.30;90.50;;;;;;5047858;28;19913;-82
2023/01/19 10:08:19;;;;;;;;;;;2.30;90.60;;;;;;5025619;28;20384;-80
2023/01/19 10:10:48;;;;;;;;;;;2.40;90.70;;;;;;5022105;28;19921;-80
2023/01/19 10:13:23;;;;;;;;;;;2.40;90.80;;;;;;5009165;28;19917;-80
2023/01/19 10:16:00;;;;;;;;;;;2.40;90.70;;;;;;5014280;28;19967;-79
2023/01/19 10:18:33;;;;;;;;;;;2.50;90.80;;;;;;5018808;28;20193;-80
2023/01/19 10:21:02;;;;;;;;;;;2.50;90.40;;;;;;5006248;28;20381;-81
2023/01/19 10:23:45;;;;;;;;;;;2.40;90.50;;;;;;5016845;28;20074;-81
2023/01/19 10:26:12;;;;;;;;;;;2.30;90.70;;;;;;5002076;28;19913;-81
2023/01/19 10:28:39;;;;;;;;;;;2.40;90.80;;;;;;5038315;28;20016;-81
2023/01/19 10:31:05;;;;;;;;;;;2.50;91.00;;;;;;5012286;28;20008;-81
2023/01/19 10:33:31;;;;;;;;;;;2.50;90.60;;;;;;4998516;28;19937;-80
2023/01/19 10:35:57;;;;;;;;;;;2.50;90.80;;;;;;5016326;28;20008;-80
2023/01/19 10:38:23;;;;;;;;;;;2.60;90.50;;;;;;5012256;28;19976;-81
2023/01/19 10:40:57;;;;;;;;;;;2.50;90.30;;;;;;5016273;28;19909;-81
2023/01/19 10:43:37;;;;;;;;;;;2.60;90.30;;;;;;5013773;28;19921;-81
2023/01/19 10:46:06;;;;;;;;;;;2.60;90.30;;;;;;5035856;28;19913;-81
2023/01/19 10:48:36;;;;;;;;;;;2.60;90.50;;;;;;5009169;28;20018;-79
2023/01/19 10:51:02;;;;;;;;;;;2.60;90.60;;;;;;5034897;28;19917;-80
2023/01/19 10:53:27;;;;;;;;;;;2.60;90.40;;;;;;5015764;28;19917;-80
2023/01/19 10:56:28;;;;;;;;;;;2.70;90.50;;;;;;5030107;28;19919;-81
2023/01/19 10:58:54;;;;;;;;;;;2.60;90.10;;;;;;4967932;28;19914;-81
2023/01/19 11:01:23;;;;;;;;;;;2.60;90.30;;;;;;5001418;28;19982;-81
2023/01/19 11:03:49;;;;;;;;;;;2.60;90.10;;;;;;5020520;28;19928;-82
2023/01/19 11:06:14;;;;;;;;;;;2.60;90.00;;;;;;5022205;28;19963;-80
2023/01/19 11:08:41;;;;;;;;;;;2.60;90.10;;;;;;5017993;28;19921;-80
2023/01/19 11:11:07;;;;;;;;;;;2.60;90.10;;;;;;5012018;28;19948;-79
2023/01/19 11:13:34;;;;;;;;;;;2.70;90.00;;;;;;5010303;28;19920;-80
2023/01/19 11:16:19;;;;;;;;;;;2.80;89.90;;;;;;5023129;28;19916;-80
2023/01/19 11:18:46;;;;;;;;;;;2.80;89.80;;;;;;5000468;28;19940;-80
2023/01/19 11:21:12;;;;;;;;;;;2.80;90.20;;;;;;5020213;28;20435;-80
2023/01/19 11:23:41;;;;;;;;;;;2.90;89.80;;;;;;5026512;28;20404;-80
2023/01/19 11:26:26;;;;;;;;;;;2.90;89.80;;;;;;5005779;28;20444;-79
2023/01/19 11:28:53;;;;;;;;;;;2.90;89.90;;;;;;5005559;28;19914;-79
2023/01/19 11:31:30;;;;;;;;;;;2.90;89.70;;;;;;5012934;28;19923;-79
2023/01/19 11:33:57;;;;;;;;;;;2.90;89.90;;;;;;5019268;28;19924;-79
2023/01/19 11:36:22;;;;;;;;;;;2.90;89.90;;;;;;5011553;28;20239;-79
2023/01/19 11:38:49;;;;;;;;;;;2.90;89.80;;;;;;5023567;28;19917;-79
2023/01/19 11:41:29;;;;;;;;;;;2.90;89.60;;;;;;5099288;22;19924;-91
2023/01/19 11:44:18;;;;;;;;;;;3.00;89.70;;;;;;5075401;28;19961;-91
2023/01/19 11:46:44;;;;;;;;;;;3.00;89.90;;;;;;5046767;22;19924;-82
2023/01/19 11:49:26;;;;;;;;;;;3.00;89.40;;;;;;5042640;28;19917;-82
2023/01/19 11:51:58;;;;;;;;;;;2.90;89.40;;;;;;5044332;28;19944;-81
2023/01/19 11:54:50;;;;;;;;;;;2.90;89.40;;;;;;5037318;28;19955;-82
2023/01/19 11:57:18;;;;;;;;;;;2.90;89.50;;;;;;5063674;22;20049;-82
2023/01/19 11:59:44;;;;;;;;;;;2.90;89.40;;;;;;5055949;28;20054;-82
2023/01/19 12:02:15;;;;;;;;;;;2.90;89.70;;;;;;5040921;28;19963;-81
2023/01/19 12:04:43;;;;;;;;;;;3.00;89.40;;;;;;5064295;28;19924;-82
2023/01/19 12:07:11;;;;;;;;;;;3.00;89.30;;;;;;5061980;28;19913;-82
2023/01/19 12:09:45;;;;;;;;;;;3.00;89.30;;;;;;5065852;28;19924;-82
2023/01/19 12:12:22;;;;;;;;;;;2.90;89.20;;;;;;5074557;28;19913;-81
2023/01/19 12:14:56;;;;;;;;;;;3.00;89.20;;;;;;5073011;28;20215;-81
2023/01/19 12:17:26;;;;;;;;;;;3.00;89.30;;;;;;5068496;28;19912;-82
2023/01/19 12:19:59;;;;;;;;;;;3.00;89.20;;;;;;5064019;28;19909;-81
2023/01/19 12:22:27;;;;;;;;;;;3.00;89.30;;;;;;5065733;28;19912;-81
2023/01/19 12:24:53;;;;;;;;;;;2.90;89.40;;;;;;5066513;28;19939;-82
2023/01/19 12:27:25;;;;;;;;;;;2.90;89.50;;;;;;5053420;28;19913;-82
2023/01/19 12:29:52;;;;;;;;;;;2.90;89.50;;;;;;5076055;28;19912;-82
2023/01/19 12:32:19;;;;;;;;;;;2.80;89.70;;;;;;5068478;28;20087;-82
2023/01/19 12:34:48;;;;;;;;;;;2.90;89.90;;;;;;5078988;28;19908;-82
2023/01/19 12:37:32;;;;;;;;;;;3.00;89.70;;;;;;5097891;28;19932;-82
2023/01/19 12:40:02;;;;;;;;;;;2.80;89.60;;;;;;5076185;28;19982;-82
2023/01/19 12:42:28;;;;;;;;;;;2.90;89.60;;;;;;5062842;28;19920;-82
2023/01/19 12:45:17;;;;;;;;;;;2.90;89.70;;;;;;5075506;28;19909;-81
2023/01/19 12:47:50;;;;;;;;;;;2.90;89.50;;;;;;5031642;28;19912;-84
2023/01/19 12:50:18;;;;;;;;;;;3.00;89.70;;;;;;5045094;28;20361;-81
2023/01/19 12:52:50;;;;;;;;;;;2.90;89.50;;;;;;5046533;28;19921;-81
2023/01/19 12:55:21;;;;;;;;;;;3.00;89.50;;;;;;5046390;28;19913;-80
2023/01/19 12:57:50;;;;;;;;;;;2.90;89.50;;;;;;5051170;28;20030;-81
2023/01/19 13:00:21;;;;;;;;;;;3.00;90.00;;;;;;5054059;28;20354;-81
2023/01/19 13:02:47;;;;;;;;;;;3.00;89.80;;;;;;5050747;28;19917;-81
2023/01/19 13:05:15;;;;;;;;;;;3.10;89.90;;;;;;5060776;28;19923;-80
2023/01/19 13:08:00;;;;;;;;;;;3.10;89.60;;;;;;5059833;28;19984;-81
2023/01/19 13:10:44;;;;;;;;;;;3.20;89.60;;;;;;5052638;28;19932;-80
2023/01/19 13:13:16;;;;;;;;;;;3.20;89.60;;;;;;5048872;28;20366;-81
2023/01/19 13:15:43;;;;;;;;;;;3.30;89.70;;;;;;5057555;28;19959;-80
2023/01/19 13:18:15;;;;;;;;;;;3.30;89.30;;;;;;5050826;28;19959;-80
2023/01/19 13:20:45;;;;;;;;;;;3.20;89.30;;;;;;5055282;28;19999;-80
2023/01/19 13:23:13;;;;;;;;;;;3.30;89.30;;;;;;5076806;28;20017;-80
2023/01/19 13:25:40;;;;;;;;;;;3.40;89.50;;;;;;5072432;28;19905;-80
2023/01/19 13:28:07;;;;;;;;;;;3.50;89.20;;;;;;5060723;28;19984;-80
2023/01/19 13:30:33;;;;;;;;;;;3.50;88.80;;;;;;5059211;28;20023;-80
2023/01/19 13:33:03;;;;;;;;;;;3.40;88.60;;;;;;5065829;28;19904;-79
2023/01/19 13:35:29;;;;;;;;;;;3.40;88.90;;;;;;5047064;28;19909;-80
2023/01/19 13:37:56;;;;;;;;;;;3.30;88.90;;;;;;5061739;28;20055;-80
2023/01/19 13:40:24;;;;;;;;;;;3.40;88.90;;;;;;5047766;28;19913;-80
2023/01/19 13:42:50;;;;;;;;;;;3.50;88.70;;;;;;5069471;28;19913;-80
2023/01/19 13:45:22;;;;;;;;;;;3.50;88.70;;;;;;5056959;28;19921;-80
2023/01/19 13:47:48;;;;;;;;;;;3.60;88.80;;;;;;5063303;28;20008;-79
2023/01/19 13:50:18;;;;;;;;;;;3.60;88.40;;;;;;5069608;28;19917;-80
2023/01/19 13:52:44;;;;;;;;;;;3.50;88.70;;;;;;5036491;28;19920;-80
2023/01/19 13:55:14;;;;;;;;;;;3.50;88.80;;;;;;5050730;28;19939;-79
2023/01/19 13:57:40;;;;;;;;;;;3.40;88.70;;;;;;5068154;28;19916;-79
2023/01/19 14:00:13;;;;;;;;;;;3.30;88.90;;;;;;5057793;28;20294;-78
2023/01/19 14:02:39;;;;;;;;;;;3.40;88.90;;;;;;5055118;28;20394;-79
2023/01/19 14:05:11;;;;;;;;;;;3.40;88.50;;;;;;5028843;28;19952;-79
2023/01/19 14:07:37;;;;;;;;;;;3.30;88.90;;;;;;5047695;28;20279;-79
2023/01/19 14:10:03;;;;;;;;;;;3.40;88.90;;;;;;5053134;28;19928;-79
2023/01/19 14:12:30;;;;;;;;;;;3.40;88.90;;;;;;5049206;28;19921;-79
2023/01/19 14:14:56;;;;;;;;;;;3.40;88.80;;;;;;5054590;28;19921;-80
2023/01/19 14:17:23;;;;;;;;;;;3.30;88.60;;;;;;5037712;28;20532;-79
2023/01/19 14:19:49;;;;;;;;;;;3.30;88.40;;;;;;5064534;28;19928;-78
2023/01/19 14:22:15;;;;;;;;;;;3.30;88.90;;;;;;5053316;28;20332;-79
2023/01/19 14:24:40;;;;;;;;;;;3.30;88.60;;;;;;5053753;28;19921;-79
2023/01/19 14:27:18;;;;;;;;;;;3.30;88.60;;;;;;5062724;28;19928;-79
2023/01/19 14:29:44;;;;;;;;;;;3.20;88.60;;;;;;5038850;28;19971;-79
2023/01/19 14:32:18;;;;;;;;;;;3.20;88.80;;;;;;5043428;28;19913;-79
2023/01/19 14:35:03;;;;;;;;;;;3.20;88.90;;;;;;5036294;28;19932;-79
2023/01/19 14:37:32;;;;;;;;;;;3.20;88.70;;;;;;5060417;28;19916;-79
2023/01/19 14:40:07;;;;;;;;;;;3.30;88.80;;;;;;5064036;28;19917;-79
2023/01/19 14:42:42;;;;;;;;;;;3.40;88.50;;;;;;5049082;28;19919;-79
2023/01/19 14:45:18;;;;;;;;;;;3.30;88.00;;;;;;5066863;28;19956;-79